createdAt,value
2023-03-16T00:00:03.839Z,4.53
2023-03-16T00:02:30.695Z,4.10
2023-03-16T00:04:57.518Z,5.07
2023-03-16T00:07:24.653Z,5.30
2023-03-16T00:09:51.494Z,4.83
2023-03-16T00:12:19.669Z,4.70
2023-03-16T00:14:48.865Z,4.70
2023-03-16T00:17:21.753Z,4.63
2023-03-16T00:19:54.964Z,4.47
2023-03-16T00:22:27.256Z,4.93
2023-03-16T00:24:55.356Z,4.40
2023-03-16T00:27:24.575Z,4.73
2023-03-16T00:29:56.458Z,3.77
2023-03-16T00:32:30.223Z,4.10
2023-03-16T00:34:57.684Z,4.70
2023-03-16T00:37:26.690Z,4.87
2023-03-16T00:39:57.164Z,4.97
2023-03-16T00:42:28.361Z,4.57
2023-03-16T00:44:59.445Z,4.90
2023-03-16T00:47:29.764Z,5.50
2023-03-16T00:49:57.222Z,4.90
2023-03-16T00:52:25.137Z,5.50
2023-03-16T00:54:54.515Z,6.00
2023-03-16T00:57:25.063Z,5.77
2023-03-16T00:59:52.562Z,5.67
2023-03-16T01:02:23.348Z,6.93
2023-03-16T01:04:52.230Z,5.97
2023-03-16T01:07:19.757Z,5.60
2023-03-16T01:09:46.753Z,6.03
2023-03-16T01:12:17.742Z,6.20
2023-03-16T01:14:48.201Z,6.57
2023-03-16T01:17:17.539Z,6.23
2023-03-16T01:19:45.787Z,6.10
2023-03-16T01:22:12.904Z,6.40
2023-03-16T01:24:40.728Z,5.90
2023-03-16T01:27:09.162Z,4.53
2023-03-16T01:29:36.423Z,5.23
2023-03-16T01:32:04.289Z,5.43
2023-03-16T01:34:31.979Z,5.53
2023-03-16T01:36:59.074Z,5.60
2023-03-16T01:39:26.777Z,5.53
2023-03-16T01:41:53.820Z,6.17
2023-03-16T01:44:30.434Z,6.23
2023-03-16T01:46:58.098Z,6.43
2023-03-16T01:49:33.673Z,5.80
2023-03-16T01:52:07.133Z,6.70
2023-03-16T01:54:40.913Z,6.50
2023-03-16T01:57:15.703Z,7.13
2023-03-16T02:00:19.113Z,6.73
2023-03-16T02:02:55.489Z,6.90
2023-03-16T02:05:33.415Z,7.43
2023-03-16T02:08:02.438Z,6.90
2023-03-16T02:10:30.340Z,7.07
2023-03-16T02:12:58.573Z,7.13
2023-03-16T02:15:25.664Z,6.37
2023-03-16T02:17:52.840Z,6.43
2023-03-16T02:20:36.535Z,8.07
2023-03-16T02:23:06.833Z,8.80
2023-03-16T02:25:51.642Z,8.50
2023-03-16T02:28:48.215Z,9.73
2023-03-16T02:31:17.611Z,9.60
2023-03-16T02:33:46.227Z,9.07
2023-03-16T02:36:15.069Z,9.63
2023-03-16T02:38:41.866Z,8.60
2023-03-16T02:41:18.459Z,8.83
2023-03-16T02:44:29.243Z,7.73
2023-03-16T02:47:01.441Z,7.00
2023-03-16T02:49:37.046Z,7.07
2023-03-16T02:52:07.680Z,7.03
2023-03-16T02:54:34.784Z,6.67
2023-03-16T02:57:02.130Z,7.23
2023-03-16T02:59:29.175Z,7.20
2023-03-16T03:01:56.201Z,7.30
2023-03-16T03:04:24.511Z,8.30
2023-03-16T03:06:52.083Z,8.17
2023-03-16T03:09:19.636Z,9.07
2023-03-16T03:11:46.871Z,9.90
2023-03-16T03:14:16.717Z,9.67
2023-03-16T03:16:46.756Z,10.60
2023-03-16T03:19:13.868Z,10.30
2023-03-16T03:21:41.583Z,9.77
2023-03-16T03:24:09.772Z,9.63
2023-03-16T03:26:40.117Z,9.20
2023-03-16T03:29:06.954Z,9.23
2023-03-16T03:31:33.817Z,9.07
2023-03-16T03:34:06.411Z,9.33
2023-03-16T03:36:34.438Z,9.13
2023-03-16T03:39:05.101Z,8.83
2023-03-16T03:41:33.266Z,9.03
2023-03-16T03:44:00.763Z,7.77
2023-03-16T03:46:27.782Z,8.87
2023-03-16T03:48:54.631Z,10.10
2023-03-16T03:51:21.786Z,9.50
2023-03-16T03:53:48.637Z,9.97
2023-03-16T03:56:15.535Z,9.57
2023-03-16T03:58:42.370Z,10.23
2023-03-16T04:01:09.219Z,10.47
2023-03-16T04:03:36.056Z,10.23
2023-03-16T04:06:02.997Z,12.17
2023-03-16T04:08:29.934Z,11.27
2023-03-16T04:10:56.766Z,10.17
2023-03-16T04:13:23.640Z,10.77
2023-03-16T04:16:00.100Z,9.80
2023-03-16T04:18:26.946Z,11.10
2023-03-16T04:20:54.069Z,11.43
2023-03-16T04:23:22.180Z,12.30
2023-03-16T04:25:49.059Z,12.00
2023-03-16T04:28:17.783Z,10.60
2023-03-16T04:30:44.690Z,10.87
2023-03-16T04:33:11.595Z,11.60
2023-03-16T04:35:38.484Z,11.77
2023-03-16T04:38:05.463Z,11.53
2023-03-16T04:40:32.269Z,11.83
2023-03-16T04:42:59.109Z,10.53
2023-03-16T04:45:26.645Z,10.87
2023-03-16T04:47:53.435Z,11.87
2023-03-16T04:50:20.355Z,11.47
2023-03-16T04:52:47.260Z,12.53
2023-03-16T04:55:14.138Z,11.63
2023-03-16T04:57:40.931Z,11.40
2023-03-16T05:00:13.364Z,11.17
2023-03-16T05:02:40.209Z,10.90
2023-03-16T05:05:07.352Z,10.57
2023-03-16T05:07:34.710Z,10.77
2023-03-16T05:10:01.544Z,10.30
2023-03-16T05:12:28.484Z,11.53
2023-03-16T05:14:55.510Z,10.60
2023-03-16T05:17:22.301Z,10.97
2023-03-16T05:19:49.143Z,10.60
2023-03-16T05:22:16.689Z,10.93
2023-03-16T05:24:43.514Z,10.87
2023-03-16T05:27:23.647Z,10.40
2023-03-16T05:29:50.482Z,10.40
2023-03-16T05:32:17.256Z,11.17
2023-03-16T05:34:44.169Z,10.20
2023-03-16T05:37:11.203Z,10.80
2023-03-16T05:39:38.107Z,10.07
2023-03-16T05:42:06.055Z,10.23
2023-03-16T05:44:33.521Z,9.13
2023-03-16T05:47:00.397Z,9.13
2023-03-16T05:49:27.308Z,9.50
2023-03-16T05:51:54.623Z,9.33
2023-03-16T05:54:21.496Z,11.07
2023-03-16T05:56:48.453Z,11.20
2023-03-16T05:59:16.554Z,10.40
2023-03-16T06:01:43.421Z,11.63
2023-03-16T06:04:10.214Z,12.13
2023-03-16T06:06:37.177Z,12.03
2023-03-16T06:09:04.492Z,11.83
2023-03-16T06:11:32.861Z,11.97
2023-03-16T06:14:01.181Z,11.13
2023-03-16T06:16:34.000Z,12.23
2023-03-16T06:19:01.028Z,12.33
2023-03-16T06:21:27.931Z,11.83
2023-03-16T06:23:55.966Z,11.53
2023-03-16T06:26:22.838Z,11.87
2023-03-16T06:28:49.685Z,10.77
2023-03-16T06:31:16.610Z,12.10
2023-03-16T06:33:43.459Z,12.33
2023-03-16T06:36:10.481Z,13.07
2023-03-16T06:38:37.386Z,11.23
2023-03-16T06:41:04.299Z,11.50
2023-03-16T06:43:31.077Z,11.43
2023-03-16T06:45:58.864Z,10.23
2023-03-16T06:48:25.754Z,10.90
2023-03-16T06:50:52.613Z,10.63
2023-03-16T06:53:19.431Z,10.53
2023-03-16T06:55:46.286Z,10.50
2023-03-16T06:58:13.219Z,10.77
2023-03-16T07:00:40.167Z,10.10
2023-03-16T07:03:06.996Z,10.97
2023-03-16T07:05:33.842Z,10.33
2023-03-16T07:08:01.276Z,9.63
2023-03-16T07:10:28.543Z,10.00
2023-03-16T07:12:55.479Z,9.23
2023-03-16T07:15:25.415Z,9.57
2023-03-16T07:17:52.788Z,9.73
2023-03-16T07:20:21.124Z,9.73
2023-03-16T07:22:50.163Z,9.57
2023-03-16T07:25:17.038Z,9.30
2023-03-16T07:27:45.484Z,9.10
2023-03-16T07:30:14.196Z,10.00
2023-03-16T07:32:42.271Z,9.50
2023-03-16T07:35:11.741Z,8.87
2023-03-16T07:37:38.870Z,9.27
2023-03-16T07:40:09.215Z,8.13
2023-03-16T07:42:37.055Z,8.27
2023-03-16T07:45:05.904Z,8.27
2023-03-16T07:47:33.659Z,7.23
2023-03-16T07:50:01.308Z,7.57
2023-03-16T07:52:28.366Z,6.87
2023-03-16T07:54:55.759Z,8.17
2023-03-16T07:57:22.629Z,7.90
2023-03-16T07:59:50.337Z,7.23
2023-03-16T08:02:20.281Z,7.13
2023-03-16T08:04:47.485Z,7.47
2023-03-16T08:07:15.601Z,7.57
2023-03-16T08:09:42.532Z,7.43
2023-03-16T08:12:10.228Z,7.40
2023-03-16T08:14:37.723Z,7.40
2023-03-16T08:17:07.180Z,8.30
2023-03-16T08:19:35.319Z,7.57
2023-03-16T08:22:02.325Z,7.80
2023-03-16T08:24:29.736Z,7.87
2023-03-16T08:26:57.832Z,7.90
2023-03-16T08:29:26.219Z,7.43
2023-03-16T08:31:56.145Z,8.00
2023-03-16T08:34:24.678Z,7.83
2023-03-16T08:36:51.495Z,8.13
2023-03-16T08:39:18.333Z,8.17
2023-03-16T08:41:46.989Z,7.50
2023-03-16T08:44:13.841Z,8.10
2023-03-16T08:46:42.324Z,8.57
2023-03-16T08:49:09.397Z,8.17
2023-03-16T08:51:36.944Z,8.53
2023-03-16T08:54:03.895Z,7.87
2023-03-16T08:56:30.751Z,7.17
2023-03-16T08:58:57.685Z,7.27
2023-03-16T09:01:25.783Z,7.43
2023-03-16T09:03:52.818Z,7.13
2023-03-16T09:06:19.980Z,7.80
2023-03-16T09:08:47.710Z,7.70
2023-03-16T09:11:18.702Z,7.73
2023-03-16T09:13:46.062Z,8.20
2023-03-16T09:16:15.219Z,6.53
2023-03-16T09:18:43.277Z,7.00
2023-03-16T09:21:13.884Z,6.80
2023-03-16T09:23:42.638Z,7.33
2023-03-16T09:26:10.333Z,6.73
2023-03-16T09:28:38.773Z,5.47
2023-03-16T09:31:07.559Z,7.00
2023-03-16T09:33:36.040Z,6.80
2023-03-16T09:36:04.395Z,6.90
2023-03-16T09:38:32.125Z,6.60
2023-03-16T09:41:04.901Z,6.23
2023-03-16T09:44:10.507Z,6.90
2023-03-16T09:46:45.495Z,7.03
2023-03-16T09:49:18.032Z,6.70
2023-03-16T09:52:06.112Z,6.97
2023-03-16T09:54:49.368Z,7.27
2023-03-16T09:57:40.429Z,6.93
2023-03-16T10:01:11.274Z,8.33
2023-03-16T10:04:24.903Z,7.93
2023-03-16T10:07:12.614Z,8.60
2023-03-16T10:10:15.940Z,9.23
2023-03-16T10:12:50.385Z,10.13
2023-03-16T10:15:24.424Z,10.40
2023-03-16T10:18:09.183Z,10.63
2023-03-16T10:20:36.582Z,10.50
2023-03-16T10:23:24.449Z,9.53
2023-03-16T10:25:56.714Z,11.03
2023-03-16T10:28:26.312Z,11.07
2023-03-16T10:30:56.247Z,12.93
2023-03-16T10:33:30.404Z,10.50
2023-03-16T10:36:12.503Z,9.90
2023-03-16T10:38:46.754Z,13.20
2023-03-16T10:41:23.065Z,29.20
2023-03-16T10:43:57.720Z,11.57
2023-03-16T10:46:29.241Z,12.27
2023-03-16T10:49:00.372Z,11.47
2023-03-16T10:51:31.484Z,9.73
2023-03-16T10:54:14.202Z,10.27
2023-03-16T10:56:41.245Z,11.50
2023-03-16T10:59:28.479Z,9.37
2023-03-16T11:01:57.093Z,8.67
2023-03-16T11:04:25.005Z,8.70
2023-03-16T11:06:57.176Z,8.33
2023-03-16T11:09:33.512Z,7.07
2023-03-16T11:12:13.811Z,6.60
2023-03-16T11:14:45.073Z,6.20
2023-03-16T11:17:37.108Z,5.57
2023-03-16T11:20:17.564Z,5.50
2023-03-16T11:22:47.180Z,7.13
2023-03-16T11:25:16.923Z,6.60
2023-03-16T11:28:04.260Z,7.60
2023-03-16T11:30:51.733Z,7.60
2023-03-16T11:33:18.689Z,7.40
2023-03-16T11:36:12.523Z,7.20
2023-03-16T11:39:11.136Z,7.67
2023-03-16T11:41:53.618Z,7.80
2023-03-16T11:44:49.501Z,7.87
2023-03-16T11:47:40.727Z,7.40
2023-03-16T11:50:29.007Z,6.70
2023-03-16T11:53:29.867Z,7.63
2023-03-16T11:56:06.573Z,7.57
2023-03-16T11:58:57.253Z,8.00
2023-03-16T12:02:01.774Z,7.43
2023-03-16T12:05:06.277Z,8.07
2023-03-16T12:08:10.080Z,8.00
2023-03-16T12:10:56.435Z,7.87
2023-03-16T12:13:38.521Z,8.47
2023-03-16T12:16:48.240Z,7.50
2023-03-16T12:19:50.313Z,8.77
2023-03-16T12:22:42.651Z,7.97
2023-03-16T12:25:24.673Z,7.67
2023-03-16T12:27:54.923Z,7.20
2023-03-16T12:30:28.390Z,7.90
2023-03-16T12:33:06.406Z,7.80
2023-03-16T12:35:51.212Z,8.53
2023-03-16T12:38:32.103Z,8.13
2023-03-16T12:41:40.969Z,7.73
2023-03-16T12:44:13.332Z,7.87
2023-03-16T12:47:00.925Z,8.00
2023-03-16T12:49:33.129Z,7.50
2023-03-16T12:52:10.179Z,7.73
2023-03-16T12:54:53.085Z,7.17
2023-03-16T12:57:25.125Z,7.30
2023-03-16T12:59:58.373Z,6.90
2023-03-16T13:02:30.542Z,6.53
2023-03-16T13:05:12.252Z,7.23
2023-03-16T13:08:24.056Z,6.40
2023-03-16T13:11:20.385Z,5.53
2023-03-16T13:14:02.458Z,5.90
2023-03-16T13:16:32.327Z,6.13
2023-03-16T13:18:59.824Z,6.23
2023-03-16T13:21:38.201Z,5.70
2023-03-16T13:24:34.963Z,5.63
2023-03-16T13:27:20.070Z,5.80
2023-03-16T13:30:03.474Z,5.30
2023-03-16T13:32:35.025Z,4.90
2023-03-16T13:35:05.267Z,4.80
2023-03-16T13:37:32.276Z,4.30
2023-03-16T13:40:02.095Z,3.77
2023-03-16T13:42:33.166Z,4.30
2023-03-16T13:45:15.225Z,3.97
2023-03-16T13:47:44.128Z,4.03
2023-03-16T13:50:13.852Z,3.47
2023-03-16T13:52:44.561Z,3.90
2023-03-16T13:55:18.126Z,2.93
2023-03-16T13:57:45.969Z,3.80
2023-03-16T14:00:26.351Z,3.73
2023-03-16T14:02:59.088Z,3.60
2023-03-16T14:05:33.374Z,3.27
2023-03-16T14:08:00.968Z,3.40
2023-03-16T14:10:36.557Z,3.13
2023-03-16T14:13:29.064Z,3.87
2023-03-16T14:16:01.001Z,2.87
2023-03-16T14:18:37.214Z,3.57
2023-03-16T14:21:22.901Z,3.53
2023-03-16T14:24:01.985Z,3.30
2023-03-16T14:26:45.194Z,4.90
2023-03-16T14:29:33.048Z,3.87
2023-03-16T14:32:00.178Z,3.73
2023-03-16T14:34:39.524Z,3.97
2023-03-16T14:37:20.144Z,16.73
2023-03-16T14:40:00.795Z,6.40
2023-03-16T14:42:30.726Z,10.67
2023-03-16T14:45:00.407Z,4.93
2023-03-16T14:47:37.803Z,3.33
2023-03-16T14:50:12.650Z,6.20
2023-03-16T14:52:39.760Z,3.83
2023-03-16T14:55:14.687Z,3.43
2023-03-16T14:57:42.935Z,3.60
2023-03-16T15:00:13.785Z,3.60
2023-03-16T15:02:43.730Z,4.20
2023-03-16T15:05:22.407Z,3.43
2023-03-16T15:07:54.747Z,3.50
2023-03-16T15:10:29.413Z,3.57
2023-03-16T15:13:06.001Z,3.67
2023-03-16T15:15:32.854Z,3.50
2023-03-16T15:18:00.106Z,3.43
2023-03-16T15:20:36.002Z,3.53
2023-03-16T15:23:04.867Z,3.33
2023-03-16T15:25:41.281Z,3.20
2023-03-16T15:28:19.354Z,3.30
2023-03-16T15:30:50.181Z,3.37
2023-03-16T15:33:17.539Z,3.47
2023-03-16T15:35:46.717Z,3.13
2023-03-16T15:38:29.898Z,3.13
2023-03-16T15:40:56.866Z,2.90
2023-03-16T15:43:27.285Z,3.27
2023-03-16T15:45:55.865Z,3.33
2023-03-16T15:48:24.593Z,3.20
2023-03-16T15:51:08.486Z,3.80
2023-03-16T15:53:47.716Z,3.63
2023-03-16T15:56:18.052Z,3.23
2023-03-16T15:58:46.624Z,3.60
2023-03-16T16:01:23.689Z,3.77
2023-03-16T16:03:52.019Z,3.47
2023-03-16T16:06:18.956Z,3.40
2023-03-16T16:08:45.971Z,3.60
2023-03-16T16:11:27.393Z,3.23
2023-03-16T16:13:56.791Z,3.30
2023-03-16T16:16:26.894Z,3.10
2023-03-16T16:18:53.719Z,3.03
2023-03-16T16:21:28.873Z,2.70
2023-03-16T16:23:56.714Z,3.00
2023-03-16T16:26:49.081Z,3.20
2023-03-16T16:29:23.072Z,3.13
2023-03-16T16:31:51.627Z,2.90
2023-03-16T16:34:24.245Z,3.03
2023-03-16T16:36:51.780Z,3.10
2023-03-16T16:39:18.671Z,3.13
2023-03-16T16:41:46.033Z,2.67
2023-03-16T16:44:21.426Z,2.77
2023-03-16T16:46:50.354Z,2.67
2023-03-16T16:49:25.211Z,2.63
2023-03-16T16:51:53.567Z,2.73
2023-03-16T16:54:23.721Z,3.00
2023-03-16T16:56:53.744Z,3.27
2023-03-16T16:59:25.172Z,3.00
2023-03-16T17:01:56.516Z,4.17
2023-03-16T17:04:27.095Z,3.47
2023-03-16T17:06:58.702Z,2.80
2023-03-16T17:09:27.874Z,2.77
2023-03-16T17:11:57.011Z,3.30
2023-03-16T17:14:27.444Z,3.13
2023-03-16T17:16:54.526Z,4.00
2023-03-16T17:19:25.160Z,3.70
2023-03-16T17:21:55.340Z,3.90
2023-03-16T17:24:22.891Z,4.47
2023-03-16T17:26:53.993Z,6.27
2023-03-16T17:29:34.112Z,5.63
2023-03-16T17:32:04.410Z,5.07
2023-03-16T17:34:33.754Z,5.80
2023-03-16T17:37:01.840Z,6.03
2023-03-16T17:39:32.227Z,4.13
2023-03-16T17:42:02.919Z,4.07
2023-03-16T17:44:40.168Z,3.70
2023-03-16T17:47:20.800Z,3.70
2023-03-16T17:49:48.951Z,4.03
2023-03-16T17:52:19.419Z,3.53
2023-03-16T17:54:51.113Z,3.70
2023-03-16T17:57:24.754Z,3.37
2023-03-16T17:59:52.123Z,4.00
2023-03-16T18:02:40.052Z,4.07
2023-03-16T18:05:16.555Z,4.23
2023-03-16T18:07:43.411Z,4.03
2023-03-16T18:10:19.869Z,4.03
2023-03-16T18:12:51.209Z,3.90
2023-03-16T18:15:18.999Z,3.70
2023-03-16T18:17:46.189Z,4.27
2023-03-16T18:20:33.477Z,4.43
2023-03-16T18:23:05.814Z,4.20
2023-03-16T18:25:42.130Z,4.13
2023-03-16T18:28:11.070Z,4.23
2023-03-16T18:30:40.168Z,4.20
2023-03-16T18:33:17.439Z,4.23
2023-03-16T18:35:44.856Z,4.50
2023-03-16T18:38:33.554Z,4.63
2023-03-16T18:41:03.549Z,4.50
2023-03-16T18:43:30.481Z,4.83
2023-03-16T18:45:57.352Z,4.30
2023-03-16T18:48:34.835Z,4.47
2023-03-16T18:51:02.138Z,4.63
2023-03-16T18:53:29.617Z,4.77
2023-03-16T18:55:57.689Z,5.27
2023-03-16T18:58:25.333Z,4.77
2023-03-16T19:00:58.690Z,4.80
2023-03-16T19:03:33.405Z,4.57
2023-03-16T19:06:08.054Z,5.70
2023-03-16T19:08:35.084Z,6.90
2023-03-16T19:11:03.185Z,6.10
2023-03-16T19:13:30.206Z,6.13
2023-03-16T19:15:57.881Z,6.03
2023-03-16T19:18:26.138Z,5.80
2023-03-16T19:20:54.778Z,6.67
2023-03-16T19:23:28.426Z,6.80
2023-03-16T19:25:55.982Z,6.60
2023-03-16T19:28:36.681Z,6.30
2023-03-16T19:31:20.731Z,6.40
2023-03-16T19:33:48.521Z,8.47
2023-03-16T19:36:20.027Z,9.10
2023-03-16T19:38:50.362Z,7.30
2023-03-16T19:41:29.122Z,6.27
2023-03-16T19:43:58.340Z,5.67
2023-03-16T19:46:28.208Z,6.57
2023-03-16T19:48:55.625Z,6.50
2023-03-16T19:51:25.252Z,7.13
2023-03-16T19:53:52.234Z,6.13
2023-03-16T19:56:21.525Z,6.43
2023-03-16T19:58:51.683Z,6.57
2023-03-16T20:01:32.862Z,6.30
2023-03-16T20:04:00.306Z,6.50
2023-03-16T20:06:27.407Z,5.90
2023-03-16T20:08:54.263Z,6.77
2023-03-16T20:11:31.826Z,6.30
2023-03-16T20:14:00.323Z,7.10
2023-03-16T20:16:32.911Z,6.23
2023-03-16T20:19:09.901Z,6.30
2023-03-16T20:21:37.985Z,5.53
2023-03-16T20:24:15.400Z,6.03
2023-03-16T20:26:44.348Z,5.53
2023-03-16T20:29:33.953Z,7.97
2023-03-16T20:32:03.634Z,7.47
2023-03-16T20:34:32.577Z,8.20
2023-03-16T20:37:00.510Z,7.73
2023-03-16T20:39:27.800Z,6.10
2023-03-16T20:41:54.700Z,6.60
2023-03-16T20:44:25.357Z,5.33
2023-03-16T20:46:54.637Z,6.00
2023-03-16T20:49:25.312Z,5.73
2023-03-16T20:51:53.172Z,5.53
2023-03-16T20:54:20.328Z,5.03
2023-03-16T20:56:48.196Z,5.37
2023-03-16T20:59:23.541Z,5.60
2023-03-16T21:01:51.922Z,5.77
2023-03-16T21:04:29.768Z,5.30
2023-03-16T21:06:59.679Z,5.27
2023-03-16T21:09:27.659Z,5.50
2023-03-16T21:11:54.545Z,5.00
2023-03-16T21:14:23.403Z,5.00
2023-03-16T21:16:51.445Z,5.17
2023-03-16T21:19:22.806Z,5.40
2023-03-16T21:21:50.228Z,5.13
2023-03-16T21:24:17.354Z,5.60
2023-03-16T21:26:45.053Z,5.27
2023-03-16T21:29:17.291Z,5.10
2023-03-16T21:31:44.456Z,4.93
2023-03-16T21:34:37.804Z,4.30
2023-03-16T21:37:17.103Z,4.83
2023-03-16T21:39:48.158Z,4.57
2023-03-16T21:42:17.198Z,4.53
2023-03-16T21:44:44.459Z,4.63
2023-03-16T21:47:28.006Z,4.63
2023-03-16T21:49:55.939Z,5.10
2023-03-16T21:52:28.596Z,4.47
2023-03-16T21:54:57.165Z,4.70
2023-03-16T21:57:24.242Z,5.70
2023-03-16T21:59:51.203Z,4.63
2023-03-16T22:02:21.979Z,4.50
2023-03-16T22:04:50.592Z,4.60
2023-03-16T22:07:18.081Z,4.53
2023-03-16T22:09:45.950Z,4.33
2023-03-16T22:12:14.123Z,4.43
2023-03-16T22:14:41.845Z,5.40
2023-03-16T22:17:21.517Z,4.67
2023-03-16T22:19:48.433Z,4.40
2023-03-16T22:22:17.316Z,4.63
2023-03-16T22:24:44.236Z,4.20
2023-03-16T22:27:21.426Z,4.37
2023-03-16T22:29:51.047Z,4.53
2023-03-16T22:32:21.789Z,4.30
2023-03-16T22:34:58.318Z,4.30
2023-03-16T22:37:27.856Z,4.50
2023-03-16T22:39:57.318Z,4.13
2023-03-16T22:42:32.216Z,4.07
2023-03-16T22:44:59.119Z,4.17
2023-03-16T22:47:32.436Z,4.07
2023-03-16T22:49:59.466Z,3.63
2023-03-16T22:52:31.248Z,3.80
2023-03-16T22:55:00.464Z,3.67
2023-03-16T22:57:28.538Z,4.20
2023-03-16T22:59:55.649Z,4.30
2023-03-16T23:02:26.766Z,4.40
2023-03-16T23:04:53.665Z,4.30
2023-03-16T23:07:20.532Z,4.30
2023-03-16T23:09:48.447Z,3.90
2023-03-16T23:12:20.451Z,3.47
2023-03-16T23:14:47.641Z,3.70
2023-03-16T23:17:18.791Z,3.70
2023-03-16T23:19:46.561Z,3.97
2023-03-16T23:22:13.493Z,3.80
2023-03-16T23:24:40.992Z,3.67
2023-03-16T23:27:21.380Z,3.83
2023-03-16T23:29:48.685Z,3.27
2023-03-16T23:32:19.490Z,3.50
2023-03-16T23:34:46.446Z,3.30
2023-03-16T23:37:13.265Z,3.47
2023-03-16T23:39:40.098Z,3.50
2023-03-16T23:42:07.481Z,3.60
2023-03-16T23:44:34.478Z,3.20
2023-03-16T23:47:01.445Z,3.27
2023-03-16T23:49:32.584Z,3.20
2023-03-16T23:52:01.725Z,3.30
2023-03-16T23:54:31.533Z,3.20
2023-03-16T23:56:58.898Z,3.20
2023-03-16T23:59:27.351Z,3.43
